sensor_id;sensor_type;location;lat;lon;timestamp;P1;durP1;ratioP1;P2;durP2;ratioP2
75280;SDS011;63874;47.230;39.620;2023-09-19T00:01:42;31.73;;;14.10;;
75280;SDS011;63874;47.230;39.620;2023-09-19T00:04:11;34.75;;;14.13;;
75280;SDS011;63874;47.230;39.620;2023-09-19T00:06:37;31.23;;;13.45;;
75280;SDS011;63874;47.230;39.620;2023-09-19T00:09:04;31.15;;;14.55;;
75280;SDS011;63874;47.230;39.620;2023-09-19T00:11:30;30.52;;;16.60;;
75280;SDS011;63874;47.230;39.620;2023-09-19T00:13:56;29.58;;;14.30;;
75280;SDS011;63874;47.230;39.620;2023-09-19T00:16:26;29.10;;;14.13;;
75280;SDS011;63874;47.230;39.620;2023-09-19T00:18:52;28.58;;;14.07;;
75280;SDS011;63874;47.230;39.620;2023-09-19T00:21:18;26.45;;;14.02;;
75280;SDS011;63874;47.230;39.620;2023-09-19T00:23:44;31.40;;;14.25;;
75280;SDS011;63874;47.230;39.620;2023-09-19T00:26:10;29.48;;;13.57;;
75280;SDS011;63874;47.230;39.620;2023-09-19T00:28:38;26.83;;;13.90;;
75280;SDS011;63874;47.230;39.620;2023-09-19T00:31:04;30.00;;;13.98;;
75280;SDS011;63874;47.230;39.620;2023-09-19T00:33:34;25.38;;;12.68;;
75280;SDS011;63874;47.230;39.620;2023-09-19T00:35:59;34.30;;;14.02;;
75280;SDS011;63874;47.230;39.620;2023-09-19T00:38:30;28.98;;;14.43;;
75280;SDS011;63874;47.230;39.620;2023-09-19T00:40:57;31.42;;;14.90;;
75280;SDS011;63874;47.230;39.620;2023-09-19T00:43:25;28.33;;;13.18;;
75280;SDS011;63874;47.230;39.620;2023-09-19T00:45:54;28.73;;;14.90;;
75280;SDS011;63874;47.230;39.620;2023-09-19T00:48:21;23.58;;;13.75;;
75280;SDS011;63874;47.230;39.620;2023-09-19T00:50:48;26.50;;;13.48;;
75280;SDS011;63874;47.230;39.620;2023-09-19T00:53:18;29.30;;;14.43;;
75280;SDS011;63874;47.230;39.620;2023-09-19T00:55:46;27.80;;;13.57;;
75280;SDS011;63874;47.230;39.620;2023-09-19T00:58:13;27.67;;;12.65;;
75280;SDS011;63874;47.230;39.620;2023-09-19T01:00:40;31.55;;;13.32;;
75280;SDS011;63874;47.230;39.620;2023-09-19T01:03:07;32.72;;;14.18;;
75280;SDS011;63874;47.230;39.620;2023-09-19T01:05:33;31.33;;;13.75;;
75280;SDS011;63874;47.230;39.620;2023-09-19T01:08:01;30.30;;;15.13;;
75280;SDS011;63874;47.230;39.620;2023-09-19T01:10:29;27.33;;;14.70;;
75280;SDS011;63874;47.230;39.620;2023-09-19T01:20:42;28.83;;;15.07;;
75280;SDS011;63874;47.230;39.620;2023-09-19T01:23:34;30.42;;;16.42;;
75280;SDS011;63874;47.230;39.620;2023-09-19T01:31:49;32.75;;;15.85;;
75280;SDS011;63874;47.230;39.620;2023-09-19T01:34:19;28.20;;;15.85;;
75280;SDS011;63874;47.230;39.620;2023-09-19T01:36:45;32.50;;;15.18;;
75280;SDS011;63874;47.230;39.620;2023-09-19T01:39:12;34.15;;;15.13;;
75280;SDS011;63874;47.230;39.620;2023-09-19T01:47:13;25.73;;;13.85;;
75280;SDS011;63874;47.230;39.620;2023-09-19T01:52:54;34.63;;;15.40;;
75280;SDS011;63874;47.230;39.620;2023-09-19T01:55:29;33.33;;;16.83;;
75280;SDS011;63874;47.230;39.620;2023-09-19T02:00:25;30.35;;;14.38;;
75280;SDS011;63874;47.230;39.620;2023-09-19T02:02:54;26.00;;;14.18;;
75280;SDS011;63874;47.230;39.620;2023-09-19T02:05:25;28.88;;;15.07;;
75280;SDS011;63874;47.230;39.620;2023-09-19T02:07:53;36.97;;;14.70;;
75280;SDS011;63874;47.230;39.620;2023-09-19T02:10:19;25.48;;;14.10;;
75280;SDS011;63874;47.230;39.620;2023-09-19T02:12:45;30.10;;;14.60;;
75280;SDS011;63874;47.230;39.620;2023-09-19T02:15:14;29.75;;;15.23;;
75280;SDS011;63874;47.230;39.620;2023-09-19T02:17:41;28.08;;;13.15;;
75280;SDS011;63874;47.230;39.620;2023-09-19T02:20:12;32.25;;;14.27;;
75280;SDS011;63874;47.230;39.620;2023-09-19T02:22:39;31.00;;;15.50;;
75280;SDS011;63874;47.230;39.620;2023-09-19T02:25:05;29.02;;;14.65;;
75280;SDS011;63874;47.230;39.620;2023-09-19T02:27:33;26.23;;;14.00;;
75280;SDS011;63874;47.230;39.620;2023-09-19T02:30:00;27.88;;;14.52;;
75280;SDS011;63874;47.230;39.620;2023-09-19T02:32:30;28.35;;;15.32;;
75280;SDS011;63874;47.230;39.620;2023-09-19T02:34:57;26.83;;;14.63;;
75280;SDS011;63874;47.230;39.620;2023-09-19T02:37:27;30.02;;;15.50;;
75280;SDS011;63874;47.230;39.620;2023-09-19T02:39:52;29.60;;;15.27;;
75280;SDS011;63874;47.230;39.620;2023-09-19T02:42:18;32.47;;;16.50;;
75280;SDS011;63874;47.230;39.620;2023-09-19T02:44:45;34.95;;;14.82;;
75280;SDS011;63874;47.230;39.620;2023-09-19T02:47:13;32.00;;;16.15;;
75280;SDS011;63874;47.230;39.620;2023-09-19T02:49:40;38.90;;;15.88;;
75280;SDS011;63874;47.230;39.620;2023-09-19T02:52:09;32.67;;;14.73;;
75280;SDS011;63874;47.230;39.620;2023-09-19T02:54:37;27.25;;;13.90;;
75280;SDS011;63874;47.230;39.620;2023-09-19T02:57:03;28.45;;;14.48;;
75280;SDS011;63874;47.230;39.620;2023-09-19T02:59:31;35.35;;;15.77;;
75280;SDS011;63874;47.230;39.620;2023-09-19T03:01:58;28.80;;;14.05;;
75280;SDS011;63874;47.230;39.620;2023-09-19T03:04:24;31.83;;;15.52;;
75280;SDS011;63874;47.230;39.620;2023-09-19T03:06:52;29.70;;;15.43;;
75280;SDS011;63874;47.230;39.620;2023-09-19T03:09:26;28.77;;;14.38;;
75280;SDS011;63874;47.230;39.620;2023-09-19T03:11:52;29.67;;;15.45;;
75280;SDS011;63874;47.230;39.620;2023-09-19T03:14:20;32.05;;;14.93;;
75280;SDS011;63874;47.230;39.620;2023-09-19T03:16:47;29.73;;;14.05;;
75280;SDS011;63874;47.230;39.620;2023-09-19T03:19:15;25.80;;;13.75;;
75280;SDS011;63874;47.230;39.620;2023-09-19T03:21:41;30.27;;;15.10;;
75280;SDS011;63874;47.230;39.620;2023-09-19T03:24:09;29.52;;;13.65;;
75280;SDS011;63874;47.230;39.620;2023-09-19T03:26:38;35.10;;;15.73;;
75280;SDS011;63874;47.230;39.620;2023-09-19T03:29:04;26.35;;;14.02;;
75280;SDS011;63874;47.230;39.620;2023-09-19T03:31:33;35.08;;;15.00;;
75280;SDS011;63874;47.230;39.620;2023-09-19T03:34:03;31.55;;;14.10;;
75280;SDS011;63874;47.230;39.620;2023-09-19T03:36:42;30.27;;;14.35;;
75280;SDS011;63874;47.230;39.620;2023-09-19T03:39:08;24.88;;;14.45;;
75280;SDS011;63874;47.230;39.620;2023-09-19T03:41:34;30.50;;;14.18;;
75280;SDS011;63874;47.230;39.620;2023-09-19T03:44:04;32.92;;;13.90;;
75280;SDS011;63874;47.230;39.620;2023-09-19T03:46:30;29.92;;;13.25;;
75280;SDS011;63874;47.230;39.620;2023-09-19T03:48:58;28.73;;;14.75;;
75280;SDS011;63874;47.230;39.620;2023-09-19T03:51:26;23.17;;;12.55;;
75280;SDS011;63874;47.230;39.620;2023-09-19T03:53:52;30.20;;;14.60;;
75280;SDS011;63874;47.230;39.620;2023-09-19T03:56:18;29.60;;;14.07;;
75280;SDS011;63874;47.230;39.620;2023-09-19T03:58:44;31.85;;;13.00;;
75280;SDS011;63874;47.230;39.620;2023-09-19T04:01:10;28.13;;;12.70;;
75280;SDS011;63874;47.230;39.620;2023-09-19T04:03:38;27.52;;;11.43;;
75280;SDS011;63874;47.230;39.620;2023-09-19T04:06:13;30.13;;;12.40;;
75280;SDS011;63874;47.230;39.620;2023-09-19T04:08:40;27.25;;;11.98;;
75280;SDS011;63874;47.230;39.620;2023-09-19T04:11:07;27.77;;;12.88;;
75280;SDS011;63874;47.230;39.620;2023-09-19T04:13:33;32.30;;;13.23;;
75280;SDS011;63874;47.230;39.620;2023-09-19T04:15:58;25.58;;;11.60;;
75280;SDS011;63874;47.230;39.620;2023-09-19T04:18:25;29.02;;;13.60;;
75280;SDS011;63874;47.230;39.620;2023-09-19T04:20:52;24.25;;;11.82;;
75280;SDS011;63874;47.230;39.620;2023-09-19T04:23:19;25.50;;;12.70;;
75280;SDS011;63874;47.230;39.620;2023-09-19T04:25:46;34.80;;;14.32;;
75280;SDS011;63874;47.230;39.620;2023-09-19T16:55:43;24.80;;;9.57;;
75280;SDS011;63874;47.230;39.620;2023-09-19T16:58:13;27.70;;;10.40;;
75280;SDS011;63874;47.230;39.620;2023-09-19T17:00:39;29.48;;;9.50;;
75280;SDS011;63874;47.230;39.620;2023-09-19T17:03:05;21.50;;;9.13;;
75280;SDS011;63874;47.230;39.620;2023-09-19T17:05:32;18.67;;;8.52;;
75280;SDS011;63874;47.230;39.620;2023-09-19T17:07:58;29.65;;;8.43;;
75280;SDS011;63874;47.230;39.620;2023-09-19T17:10:29;26.38;;;9.02;;
75280;SDS011;63874;47.230;39.620;2023-09-19T17:13:02;24.02;;;8.85;;
75280;SDS011;63874;47.230;39.620;2023-09-19T17:15:31;23.58;;;9.02;;
75280;SDS011;63874;47.230;39.620;2023-09-19T17:17:57;31.13;;;9.23;;
75280;SDS011;63874;47.230;39.620;2023-09-19T17:20:27;17.40;;;8.40;;
75280;SDS011;63874;47.230;39.620;2023-09-19T17:22:54;26.52;;;10.45;;
75280;SDS011;63874;47.230;39.620;2023-09-19T17:25:21;25.75;;;9.60;;
75280;SDS011;63874;47.230;39.620;2023-09-19T17:27:48;24.15;;;9.02;;
75280;SDS011;63874;47.230;39.620;2023-09-19T17:30:14;30.90;;;9.27;;
75280;SDS011;63874;47.230;39.620;2023-09-19T17:32:44;28.63;;;8.30;;
75280;SDS011;63874;47.230;39.620;2023-09-19T17:35:11;23.95;;;10.13;;
75280;SDS011;63874;47.230;39.620;2023-09-19T17:37:40;29.90;;;9.82;;
75280;SDS011;63874;47.230;39.620;2023-09-19T17:40:09;26.70;;;9.20;;
75280;SDS011;63874;47.230;39.620;2023-09-19T17:42:39;21.45;;;8.63;;
75280;SDS011;63874;47.230;39.620;2023-09-19T17:45:09;27.90;;;10.27;;
75280;SDS011;63874;47.230;39.620;2023-09-19T17:47:43;31.38;;;9.45;;
75280;SDS011;63874;47.230;39.620;2023-09-19T17:50:11;26.52;;;11.32;;
75280;SDS011;63874;47.230;39.620;2023-09-19T17:52:41;34.42;;;10.52;;
75280;SDS011;63874;47.230;39.620;2023-09-19T17:55:10;21.73;;;8.82;;
75280;SDS011;63874;47.230;39.620;2023-09-19T17:57:41;24.20;;;9.35;;
75280;SDS011;63874;47.230;39.620;2023-09-19T18:00:10;23.52;;;7.57;;
75280;SDS011;63874;47.230;39.620;2023-09-19T18:02:45;21.23;;;9.65;;
75280;SDS011;63874;47.230;39.620;2023-09-19T18:05:12;20.75;;;8.77;;
75280;SDS011;63874;47.230;39.620;2023-09-19T18:07:44;28.73;;;10.30;;
75280;SDS011;63874;47.230;39.620;2023-09-19T18:10:10;27.73;;;11.63;;
75280;SDS011;63874;47.230;39.620;2023-09-19T18:12:40;18.98;;;8.45;;
75280;SDS011;63874;47.230;39.620;2023-09-19T18:15:06;23.85;;;9.85;;
75280;SDS011;63874;47.230;39.620;2023-09-19T18:17:33;28.50;;;8.18;;
75280;SDS011;63874;47.230;39.620;2023-09-19T18:20:01;26.48;;;8.00;;
75280;SDS011;63874;47.230;39.620;2023-09-19T18:22:30;17.52;;;8.02;;
75280;SDS011;63874;47.230;39.620;2023-09-19T18:24:59;19.05;;;7.88;;
75280;SDS011;63874;47.230;39.620;2023-09-19T18:27:26;24.83;;;9.13;;
75280;SDS011;63874;47.230;39.620;2023-09-19T18:29:53;20.48;;;8.23;;
75280;SDS011;63874;47.230;39.620;2023-09-19T18:32:19;17.13;;;8.13;;
75280;SDS011;63874;47.230;39.620;2023-09-19T18:34:45;19.42;;;9.45;;
75280;SDS011;63874;47.230;39.620;2023-09-19T18:37:11;23.15;;;9.85;;
75280;SDS011;63874;47.230;39.620;2023-09-19T18:39:37;29.88;;;10.05;;
75280;SDS011;63874;47.230;39.620;2023-09-19T18:42:03;22.98;;;9.50;;
75280;SDS011;63874;47.230;39.620;2023-09-19T18:44:29;19.23;;;8.82;;
75280;SDS011;63874;47.230;39.620;2023-09-19T18:46:54;23.65;;;9.48;;
75280;SDS011;63874;47.230;39.620;2023-09-19T18:49:22;21.65;;;9.15;;
75280;SDS011;63874;47.230;39.620;2023-09-19T18:51:49;18.17;;;8.65;;
75280;SDS011;63874;47.230;39.620;2023-09-19T18:54:16;20.85;;;9.38;;
75280;SDS011;63874;47.230;39.620;2023-09-19T18:56:42;23.83;;;9.15;;
75280;SDS011;63874;47.230;39.620;2023-09-19T18:59:09;18.85;;;8.85;;
75280;SDS011;63874;47.230;39.620;2023-09-19T19:01:39;26.88;;;8.32;;
75280;SDS011;63874;47.230;39.620;2023-09-19T19:04:04;21.10;;;9.20;;
75280;SDS011;63874;47.230;39.620;2023-09-19T19:06:30;28.48;;;9.00;;
75280;SDS011;63874;47.230;39.620;2023-09-19T19:08:58;19.63;;;8.68;;
75280;SDS011;63874;47.230;39.620;2023-09-19T19:11:24;21.38;;;9.32;;
75280;SDS011;63874;47.230;39.620;2023-09-19T19:13:53;23.48;;;8.73;;
75280;SDS011;63874;47.230;39.620;2023-09-19T19:16:19;23.15;;;9.60;;
75280;SDS011;63874;47.230;39.620;2023-09-19T19:18:45;18.52;;;8.25;;
75280;SDS011;63874;47.230;39.620;2023-09-19T19:21:12;19.73;;;8.57;;
75280;SDS011;63874;47.230;39.620;2023-09-19T19:23:40;31.15;;;11.77;;
75280;SDS011;63874;47.230;39.620;2023-09-19T19:26:07;26.23;;;10.68;;
75280;SDS011;63874;47.230;39.620;2023-09-19T19:28:34;24.23;;;11.48;;
75280;SDS011;63874;47.230;39.620;2023-09-19T19:31:01;27.20;;;9.50;;
75280;SDS011;63874;47.230;39.620;2023-09-19T19:33:28;21.48;;;7.80;;
75280;SDS011;63874;47.230;39.620;2023-09-19T19:36:04;23.95;;;8.77;;
75280;SDS011;63874;47.230;39.620;2023-09-19T19:38:32;21.40;;;8.50;;
75280;SDS011;63874;47.230;39.620;2023-09-19T19:40:58;22.05;;;8.05;;
75280;SDS011;63874;47.230;39.620;2023-09-19T19:43:26;18.15;;;7.45;;
75280;SDS011;63874;47.230;39.620;2023-09-19T19:45:56;19.13;;;9.30;;
75280;SDS011;63874;47.230;39.620;2023-09-19T19:48:23;20.08;;;9.52;;
75280;SDS011;63874;47.230;39.620;2023-09-19T19:50:49;17.42;;;7.78;;
75280;SDS011;63874;47.230;39.620;2023-09-19T19:53:15;19.05;;;6.88;;
75280;SDS011;63874;47.230;39.620;2023-09-19T19:55:42;15.60;;;7.30;;
75280;SDS011;63874;47.230;39.620;2023-09-19T19:58:08;15.93;;;7.68;;
75280;SDS011;63874;47.230;39.620;2023-09-19T20:00:34;19.27;;;7.63;;
75280;SDS011;63874;47.230;39.620;2023-09-19T20:03:01;18.00;;;7.30;;
75280;SDS011;63874;47.230;39.620;2023-09-19T20:05:28;19.27;;;7.75;;
75280;SDS011;63874;47.230;39.620;2023-09-19T20:07:54;16.27;;;7.90;;
75280;SDS011;63874;47.230;39.620;2023-09-19T20:10:20;18.65;;;8.30;;
75280;SDS011;63874;47.230;39.620;2023-09-19T20:12:50;16.50;;;6.80;;
75280;SDS011;63874;47.230;39.620;2023-09-19T20:15:16;19.88;;;7.20;;
75280;SDS011;63874;47.230;39.620;2023-09-19T20:17:43;14.88;;;7.43;;
75280;SDS011;63874;47.230;39.620;2023-09-19T20:20:09;14.38;;;7.03;;
75280;SDS011;63874;47.230;39.620;2023-09-19T20:22:46;19.88;;;6.97;;
75280;SDS011;63874;47.230;39.620;2023-09-19T20:25:15;15.23;;;6.65;;
75280;SDS011;63874;47.230;39.620;2023-09-19T20:27:42;19.33;;;7.13;;
75280;SDS011;63874;47.230;39.620;2023-09-19T20:30:08;15.73;;;6.53;;
75280;SDS011;63874;47.230;39.620;2023-09-19T20:32:37;13.88;;;6.30;;
75280;SDS011;63874;47.230;39.620;2023-09-19T20:35:07;18.67;;;6.47;;
75280;SDS011;63874;47.230;39.620;2023-09-19T20:37:33;17.63;;;7.43;;
75280;SDS011;63874;47.230;39.620;2023-09-19T20:40:02;14.82;;;5.65;;
75280;SDS011;63874;47.230;39.620;2023-09-19T20:42:31;16.65;;;7.35;;
75280;SDS011;63874;47.230;39.620;2023-09-19T20:44:57;15.25;;;6.22;;
75280;SDS011;63874;47.230;39.620;2023-09-19T20:47:25;19.17;;;6.85;;
75280;SDS011;63874;47.230;39.620;2023-09-19T20:49:51;17.55;;;6.65;;
75280;SDS011;63874;47.230;39.620;2023-09-19T20:52:19;15.43;;;6.03;;
75280;SDS011;63874;47.230;39.620;2023-09-19T20:54:45;14.50;;;7.28;;
75280;SDS011;63874;47.230;39.620;2023-09-19T20:57:12;14.88;;;6.38;;
75280;SDS011;63874;47.230;39.620;2023-09-19T20:59:39;16.15;;;6.80;;
75280;SDS011;63874;47.230;39.620;2023-09-19T21:02:07;18.58;;;6.70;;
75280;SDS011;63874;47.230;39.620;2023-09-19T21:04:36;10.98;;;5.13;;
75280;SDS011;63874;47.230;39.620;2023-09-19T21:07:03;13.68;;;6.43;;
75280;SDS011;63874;47.230;39.620;2023-09-19T21:09:31;14.13;;;5.88;;
75280;SDS011;63874;47.230;39.620;2023-09-19T21:11:56;13.52;;;6.07;;
75280;SDS011;63874;47.230;39.620;2023-09-19T21:14:23;15.80;;;6.00;;
75280;SDS011;63874;47.230;39.620;2023-09-19T21:16:49;13.32;;;5.80;;
75280;SDS011;63874;47.230;39.620;2023-09-19T21:19:15;11.88;;;5.25;;
75280;SDS011;63874;47.230;39.620;2023-09-19T21:21:41;16.27;;;5.55;;
75280;SDS011;63874;47.230;39.620;2023-09-19T21:24:07;11.57;;;5.60;;
75280;SDS011;63874;47.230;39.620;2023-09-19T21:26:36;12.77;;;5.32;;
75280;SDS011;63874;47.230;39.620;2023-09-19T21:29:02;15.93;;;5.78;;
75280;SDS011;63874;47.230;39.620;2023-09-19T21:31:29;10.63;;;5.50;;
75280;SDS011;63874;47.230;39.620;2023-09-19T21:33:55;14.70;;;5.93;;
75280;SDS011;63874;47.230;39.620;2023-09-19T21:36:21;13.45;;;6.10;;
75280;SDS011;63874;47.230;39.620;2023-09-19T21:38:48;14.00;;;5.90;;
75280;SDS011;63874;47.230;39.620;2023-09-19T21:41:15;13.45;;;5.47;;
75280;SDS011;63874;47.230;39.620;2023-09-19T21:43:44;13.07;;;6.28;;
75280;SDS011;63874;47.230;39.620;2023-09-19T21:46:14;15.18;;;5.43;;
75280;SDS011;63874;47.230;39.620;2023-09-19T21:48:41;14.00;;;5.75;;
75280;SDS011;63874;47.230;39.620;2023-09-19T21:51:07;12.65;;;6.45;;
75280;SDS011;63874;47.230;39.620;2023-09-19T21:53:33;13.35;;;5.65;;
75280;SDS011;63874;47.230;39.620;2023-09-19T21:56:01;17.45;;;6.43;;
75280;SDS011;63874;47.230;39.620;2023-09-19T21:58:30;14.80;;;5.82;;
75280;SDS011;63874;47.230;39.620;2023-09-19T22:00:59;14.18;;;6.15;;
75280;SDS011;63874;47.230;39.620;2023-09-19T22:03:33;17.98;;;6.00;;
75280;SDS011;63874;47.230;39.620;2023-09-19T22:06:08;10.40;;;5.22;;
75280;SDS011;63874;47.230;39.620;2023-09-19T22:08:42;13.18;;;5.07;;
75280;SDS011;63874;47.230;39.620;2023-09-19T22:11:09;13.07;;;5.97;;
75280;SDS011;63874;47.230;39.620;2023-09-19T22:13:36;12.10;;;5.03;;
75280;SDS011;63874;47.230;39.620;2023-09-19T22:16:08;11.75;;;4.43;;
75280;SDS011;63874;47.230;39.620;2023-09-19T22:18:39;16.42;;;5.75;;
75280;SDS011;63874;47.230;39.620;2023-09-19T22:21:07;12.48;;;5.05;;
75280;SDS011;63874;47.230;39.620;2023-09-19T22:23:36;10.68;;;4.63;;
75280;SDS011;63874;47.230;39.620;2023-09-19T22:26:06;13.73;;;4.78;;
75280;SDS011;63874;47.230;39.620;2023-09-19T22:28:34;13.20;;;5.70;;
75280;SDS011;63874;47.230;39.620;2023-09-19T22:31:02;14.02;;;6.07;;
75280;SDS011;63874;47.230;39.620;2023-09-19T22:33:37;14.73;;;5.35;;
75280;SDS011;63874;47.230;39.620;2023-09-19T22:36:04;13.40;;;6.03;;
75280;SDS011;63874;47.230;39.620;2023-09-19T22:38:34;11.75;;;5.35;;
75280;SDS011;63874;47.230;39.620;2023-09-19T22:41:03;12.18;;;5.55;;
75280;SDS011;63874;47.230;39.620;2023-09-19T22:43:47;12.45;;;6.45;;
75280;SDS011;63874;47.230;39.620;2023-09-19T22:46:15;15.38;;;6.25;;
75280;SDS011;63874;47.230;39.620;2023-09-19T22:48:44;13.75;;;5.93;;
75280;SDS011;63874;47.230;39.620;2023-09-19T22:51:13;16.48;;;6.43;;
75280;SDS011;63874;47.230;39.620;2023-09-19T22:53:48;12.15;;;5.78;;
75280;SDS011;63874;47.230;39.620;2023-09-19T22:56:16;16.38;;;6.30;;
75280;SDS011;63874;47.230;39.620;2023-09-19T22:58:47;19.15;;;6.97;;
75280;SDS011;63874;47.230;39.620;2023-09-19T23:01:14;12.52;;;5.78;;
75280;SDS011;63874;47.230;39.620;2023-09-19T23:03:44;15.70;;;6.45;;
75280;SDS011;63874;47.230;39.620;2023-09-19T23:06:31;14.77;;;5.82;;
75280;SDS011;63874;47.230;39.620;2023-09-19T23:08:58;14.30;;;6.88;;
75280;SDS011;63874;47.230;39.620;2023-09-19T23:11:25;16.80;;;6.35;;
75280;SDS011;63874;47.230;39.620;2023-09-19T23:13:55;19.17;;;6.75;;
75280;SDS011;63874;47.230;39.620;2023-09-19T23:16:23;17.60;;;6.65;;
75280;SDS011;63874;47.230;39.620;2023-09-19T23:18:58;15.65;;;5.88;;
75280;SDS011;63874;47.230;39.620;2023-09-19T23:21:41;12.95;;;5.47;;
75280;SDS011;63874;47.230;39.620;2023-09-19T23:24:13;18.70;;;6.00;;
75280;SDS011;63874;47.230;39.620;2023-09-19T23:26:46;13.13;;;5.75;;
75280;SDS011;63874;47.230;39.620;2023-09-19T23:29:14;12.30;;;5.95;;
75280;SDS011;63874;47.230;39.620;2023-09-19T23:31:43;19.45;;;6.57;;
75280;SDS011;63874;47.230;39.620;2023-09-19T23:34:12;13.05;;;6.47;;
75280;SDS011;63874;47.230;39.620;2023-09-19T23:36:39;12.05;;;5.53;;
75280;SDS011;63874;47.230;39.620;2023-09-19T23:39:05;12.45;;;6.18;;
75280;SDS011;63874;47.230;39.620;2023-09-19T23:41:34;12.43;;;5.75;;
75280;SDS011;63874;47.230;39.620;2023-09-19T23:44:07;18.63;;;6.13;;
75280;SDS011;63874;47.230;39.620;2023-09-19T23:46:38;14.52;;;5.70;;
75280;SDS011;63874;47.230;39.620;2023-09-19T23:51:38;15.63;;;5.45;;
75280;SDS011;63874;47.230;39.620;2023-09-19T23:54:04;14.93;;;6.03;;
75280;SDS011;63874;47.230;39.620;2023-09-19T23:56:41;14.30;;;5.60;;
